Naples Municipal Airport
KAPF : now visible

Airfield :











YOU CAN JOIN US ON...

 
LOGIN :

Register | Disclaimer

   EN    FR    IT 

 









Legend :    VFR   Marginal VFR   IFR   Intensive IFR   Very Intensive IFR
Visi :
Ceiling :
>= 8 km
>= 3000ft
5 to 8 km
1000 to 3000 ft
1500m to 5 km
500 to 1000 ft
800 to 1500m
200 to 500 ft
< 800m
< 200 ft
Symbols :   Thunderstorms  Fog  Heavy snow  Heavy precipitations  Wind > 20 kt







- Airport Elevation : 8 ft


KAPF - Naples Municipal

CURRENT METAR :
  • 201553Z 28014KT 10SM FEW041 26/16 A3002 RMK AO2 SLP165 T02560161

EXPIRED METARs :
  • 201453Z 31014G21KT 10SM FEW045 24/16 A3002 RMK AO2 SLP164 T02440156 51019
  • 201353Z 29017G23KT 10SM SCT055 24/16 A3000 RMK AO2 PK WND 29026/1329 SLP158 T02390156

TAF KAPF
Valid from the 20 at 15:00 until the 21 at 12:00 UTC


201503Z 2015/2112 30015KT P6SM BKN060
FM210100 31007KT P6SM FEW030
KZMA FIR / North America



MET'MAP, your aeronautical weather chart ! - Copyright ORBIFLY December 2007 - Disclaimer

ORBIFLY MET'MAP TEAM :

Programming & Development : Alexandra Zaïnal
Concept & Development : Baudouin d'Aumeries
Co-Development & Prog : Marc-Olivier Méhu
Technical & hardware support : Manuel Goepfert

Contact : metmap@orbifly.com




SOURCES & CREDITS :

   NOAA       Earth
Advisory